createdAt,value
2022-11-03T00:01:46.539Z,89.28
2022-11-03T00:04:22.285Z,87.74
2022-11-03T00:06:52.253Z,88.30
2022-11-03T00:09:20.218Z,87.73
2022-11-03T00:11:50.708Z,86.80
2022-11-03T00:14:18.250Z,87.67
2022-11-03T00:16:45.299Z,88.35
2022-11-03T00:19:14.878Z,88.85
2022-11-03T00:21:41.933Z,89.11
2022-11-03T00:24:08.954Z,88.99
2022-11-03T00:26:36.866Z,88.89
2022-11-03T00:29:10.096Z,87.59
2022-11-03T00:31:39.160Z,87.94
2022-11-03T00:34:20.337Z,88.08
2022-11-03T00:36:47.097Z,87.18
2022-11-03T00:39:13.836Z,86.48
2022-11-03T00:41:41.060Z,87.52
2022-11-03T00:44:08.473Z,87.05
2022-11-03T00:46:35.736Z,86.94
2022-11-03T00:49:04.538Z,87.50
2022-11-03T00:51:31.496Z,88.02
2022-11-03T00:57:19.854Z,86.88
2022-11-03T00:59:46.729Z,85.46
2022-11-03T01:02:16.644Z,83.07
2022-11-03T01:05:02.181Z,82.27
2022-11-03T01:07:31.134Z,81.81
2022-11-03T01:09:58.395Z,81.39
2022-11-03T01:12:25.325Z,81.73
2022-11-03T01:14:53.462Z,81.76
2022-11-03T01:17:23.742Z,81.79
2022-11-03T01:19:50.688Z,81.74
2022-11-03T01:22:18.458Z,82.89
2022-11-03T01:24:46.086Z,85.31
2022-11-03T01:27:15.412Z,87.12
2022-11-03T01:29:42.536Z,86.84
2022-11-03T01:32:09.454Z,87.89
2022-11-03T01:34:36.959Z,87.96
2022-11-03T01:37:04.358Z,87.46
2022-11-03T01:39:31.132Z,86.82
2022-11-03T01:41:58.098Z,86.41
2022-11-03T01:44:26.597Z,86.31
2022-11-03T01:47:14.484Z,83.89
2022-11-03T01:50:10.629Z,83.27
2022-11-03T01:52:57.286Z,80.80
2022-11-03T01:55:32.314Z,81.45
2022-11-03T01:58:23.868Z,81.00
2022-11-03T02:00:55.348Z,79.63
2022-11-03T02:03:23.249Z,80.65
2022-11-03T02:05:51.181Z,79.65
2022-11-03T02:08:30.800Z,80.50
2022-11-03T02:10:58.407Z,79.04
2022-11-03T02:13:27.420Z,79.69
2022-11-03T02:15:58.624Z,80.90
2022-11-03T02:18:29.781Z,81.13
2022-11-03T02:21:20.715Z,80.31
2022-11-03T02:23:59.098Z,81.55
2022-11-03T02:26:26.211Z,82.92
2022-11-03T02:31:49.568Z,84.16
2022-11-03T02:34:19.824Z,84.12
2022-11-03T02:36:51.505Z,84.33
2022-11-03T02:39:25.182Z,84.37
2022-11-03T02:41:53.803Z,84.25
2022-11-03T02:44:20.996Z,84.81
2022-11-03T02:46:52.646Z,85.09
2022-11-03T02:49:19.375Z,85.17
2022-11-03T02:51:45.975Z,83.84
2022-11-03T02:54:23.617Z,84.20
2022-11-03T02:57:04.684Z,83.95
2022-11-03T02:59:41.432Z,83.42
2022-11-03T03:02:15.965Z,83.21
2022-11-03T03:04:48.958Z,82.36
2022-11-03T03:07:32.678Z,82.82
2022-11-03T03:10:10.731Z,82.66
2022-11-03T03:12:42.890Z,83.90
2022-11-03T03:15:10.109Z,83.86
2022-11-03T03:17:46.230Z,82.68
2022-11-03T03:20:47.998Z,81.86
2022-11-03T03:23:21.871Z,82.92
2022-11-03T03:26:07.773Z,83.35
2022-11-03T03:28:43.922Z,82.41
2022-11-03T03:31:14.702Z,81.62
2022-11-03T03:33:46.559Z,81.51
2022-11-03T03:36:18.748Z,81.22
2022-11-03T03:38:50.821Z,82.32
2022-11-03T03:41:22.114Z,82.10
2022-11-03T03:43:53.614Z,81.33
2022-11-03T03:46:23.291Z,80.85
2022-11-03T03:48:50.245Z,82.19
2022-11-03T03:51:20.884Z,81.81
2022-11-03T03:53:52.366Z,82.17
2022-11-03T03:56:29.623Z,81.63
2022-11-03T03:58:56.380Z,80.13
2022-11-03T04:01:23.077Z,78.87
2022-11-03T04:03:49.920Z,79.85
2022-11-03T04:06:16.593Z,78.62
2022-11-03T04:08:43.469Z,79.24
2022-11-03T04:11:28.750Z,78.27
2022-11-03T04:14:14.237Z,77.62
2022-11-03T04:16:59.515Z,77.38
2022-11-03T04:19:45.004Z,76.91
2022-11-03T04:22:17.809Z,76.95
2022-11-03T04:24:49.625Z,77.27
2022-11-03T04:27:22.519Z,76.42
2022-11-03T04:29:49.258Z,76.15
2022-11-03T04:32:17.955Z,76.87
2022-11-03T04:34:48.380Z,75.24
2022-11-03T04:37:15.931Z,75.12
2022-11-03T04:42:18.769Z,75.88
2022-11-03T04:44:47.176Z,76.37
2022-11-03T04:47:16.263Z,77.02
2022-11-03T04:49:44.466Z,76.71
2022-11-03T04:52:18.372Z,76.26
2022-11-03T04:54:46.984Z,76.65
2022-11-03T04:57:15.461Z,78.18
2022-11-03T04:59:49.130Z,77.60
2022-11-03T05:02:19.824Z,78.66
2022-11-03T05:04:46.664Z,78.03
2022-11-03T05:07:33.956Z,78.41
2022-11-03T05:10:01.160Z,79.11
2022-11-03T05:12:29.718Z,79.37
2022-11-03T05:14:58.762Z,79.88
2022-11-03T05:17:27.998Z,80.01
2022-11-03T05:20:01.956Z,80.78
2022-11-03T05:22:34.076Z,81.56
2022-11-03T05:25:03.707Z,81.82
2022-11-03T05:27:30.602Z,82.42
2022-11-03T05:30:00.977Z,81.54
2022-11-03T05:32:33.379Z,83.26
2022-11-03T05:35:00.734Z,83.27
2022-11-03T05:37:27.596Z,83.50
2022-11-03T05:40:41.745Z,82.13
2022-11-03T05:43:12.804Z,82.40
2022-11-03T05:45:39.956Z,82.86
2022-11-03T05:48:17.421Z,83.61
2022-11-03T05:50:44.843Z,84.00
2022-11-03T05:53:28.383Z,83.86
2022-11-03T05:55:57.067Z,85.03
2022-11-03T05:58:37.302Z,85.49
2022-11-03T06:01:34.794Z,86.76
2022-11-03T06:04:12.509Z,87.65
2022-11-03T06:06:42.952Z,88.12
2022-11-03T06:09:16.475Z,88.77
2022-11-03T06:11:44.513Z,89.43
2022-11-03T06:14:21.409Z,89.15
2022-11-03T06:16:50.859Z,89.92
2022-11-03T06:19:39.364Z,89.62
2022-11-03T06:22:18.709Z,90.29
2022-11-03T06:24:48.295Z,90.64
2022-11-03T06:27:23.837Z,90.84
2022-11-03T06:29:56.174Z,90.96
2022-11-03T06:32:23.093Z,91.08
2022-11-03T06:34:55.251Z,91.49
2022-11-03T06:37:27.541Z,92.18
2022-11-03T06:40:00.038Z,91.35
2022-11-03T06:42:31.977Z,91.72
2022-11-03T06:45:01.574Z,91.29
2022-11-03T06:47:29.532Z,90.98
2022-11-03T06:50:00.445Z,90.91
2022-11-03T06:52:29.128Z,91.29
2022-11-03T06:55:15.631Z,91.19
2022-11-03T06:57:47.136Z,91.54
2022-11-03T07:00:34.842Z,91.63
2022-11-03T07:03:27.879Z,91.61
2022-11-03T07:05:58.410Z,91.31
2022-11-03T07:08:28.808Z,92.38
2022-11-03T07:11:26.195Z,91.61
2022-11-03T07:14:10.852Z,92.62
2022-11-03T07:16:44.688Z,92.11
2022-11-03T07:19:19.086Z,92.53
2022-11-03T07:21:47.465Z,92.45
2022-11-03T07:24:29.466Z,92.61
2022-11-03T07:27:22.015Z,92.47
2022-11-03T07:29:50.792Z,92.16
2022-11-03T07:32:23.987Z,92.46
2022-11-03T07:34:53.536Z,92.23
2022-11-03T07:37:24.327Z,92.44
2022-11-03T07:39:51.893Z,91.81
2022-11-03T07:42:21.367Z,91.84
2022-11-03T07:44:49.795Z,92.18
2022-11-03T07:47:20.371Z,93.03
2022-11-03T07:49:47.602Z,92.98
2022-11-03T07:52:16.731Z,93.15
2022-11-03T07:54:43.453Z,93.45
2022-11-03T07:57:22.373Z,93.06
2022-11-03T07:59:57.273Z,93.76
2022-11-03T08:02:42.549Z,93.64
2022-11-03T08:05:09.367Z,93.63
2022-11-03T08:07:36.487Z,92.02
2022-11-03T08:10:03.651Z,89.58
2022-11-03T08:12:30.471Z,86.45
2022-11-03T08:14:57.161Z,85.59
2022-11-03T08:17:24.008Z,84.78
2022-11-03T08:19:50.916Z,84.11
2022-11-03T08:22:17.580Z,82.89
2022-11-03T08:24:44.366Z,82.22
2022-11-03T08:27:11.039Z,80.47
2022-11-03T08:29:37.803Z,80.40
2022-11-03T08:32:04.758Z,79.50
2022-11-03T08:34:31.452Z,78.36
2022-11-03T08:36:58.215Z,78.30
2022-11-03T08:39:25.186Z,76.15
2022-11-03T08:41:51.834Z,77.02
2022-11-03T08:44:18.695Z,75.37
2022-11-03T08:46:45.385Z,75.65
2022-11-03T08:49:12.083Z,75.10
2022-11-03T08:51:43.953Z,75.76
2022-11-03T08:54:11.196Z,75.55
2022-11-03T08:56:37.823Z,74.92
2022-11-03T08:59:04.530Z,74.87
2022-11-03T09:01:31.291Z,75.93
2022-11-03T09:03:58.213Z,74.76
2022-11-03T09:06:25.261Z,76.75
2022-11-03T09:11:38.685Z,76.18
2022-11-03T09:14:05.322Z,76.22
2022-11-03T09:16:32.263Z,76.97
2022-11-03T09:18:58.892Z,75.25
2022-11-03T09:21:25.575Z,75.41
2022-11-03T09:23:52.275Z,74.64
2022-11-03T09:26:19.095Z,75.23
2022-11-03T09:28:45.920Z,72.98
2022-11-03T09:31:12.922Z,73.91
2022-11-03T09:33:40.866Z,75.53
2022-11-03T09:36:08.031Z,75.60
2022-11-03T09:38:35.046Z,74.99
2022-11-03T09:41:09.617Z,76.86
2022-11-03T09:43:46.392Z,76.05
2022-11-03T09:46:14.572Z,75.72
2022-11-03T09:48:41.660Z,77.73
2022-11-03T09:51:19.063Z,74.42
2022-11-03T09:53:45.745Z,74.53
2022-11-03T09:56:12.531Z,76.58
2022-11-03T09:58:40.889Z,74.21
2022-11-03T10:01:10.718Z,74.56
2022-11-03T10:03:39.245Z,74.82
2022-11-03T10:06:09.693Z,75.32
2022-11-03T10:08:41.972Z,75.91
2022-11-03T10:11:09.385Z,74.59
2022-11-03T10:13:53.236Z,74.90
2022-11-03T10:16:22.995Z,75.37
2022-11-03T10:18:50.518Z,76.03
2022-11-03T10:21:18.909Z,76.11
2022-11-03T10:23:45.703Z,75.54
2022-11-03T10:26:18.693Z,74.64
2022-11-03T10:28:59.296Z,76.51
2022-11-03T10:31:41.723Z,74.39
2022-11-03T10:34:31.946Z,75.73
2022-11-03T10:37:20.764Z,75.21
2022-11-03T10:39:49.638Z,76.77
2022-11-03T10:42:34.905Z,76.99
2022-11-03T10:45:19.928Z,76.35
2022-11-03T10:48:09.755Z,75.92
2022-11-03T10:50:39.909Z,77.72
2022-11-03T10:53:16.523Z,76.14
2022-11-03T10:55:43.819Z,77.08
2022-11-03T10:58:10.921Z,77.35
2022-11-03T11:00:40.067Z,76.86
2022-11-03T11:03:07.060Z,77.65
2022-11-03T11:05:34.091Z,78.18
2022-11-03T11:08:02.182Z,78.13
2022-11-03T11:10:31.414Z,78.87
2022-11-03T11:13:17.983Z,78.63
2022-11-03T11:15:50.421Z,78.81
2022-11-03T11:18:29.518Z,78.58
2022-11-03T11:20:57.008Z,79.77
2022-11-03T11:23:29.667Z,79.63
2022-11-03T11:26:11.690Z,79.79
2022-11-03T11:29:10.185Z,80.83
2022-11-03T11:31:37.658Z,80.76
2022-11-03T11:34:16.905Z,81.34
2022-11-03T11:37:04.478Z,81.50
2022-11-03T11:39:31.235Z,80.78
2022-11-03T11:42:13.790Z,81.30
2022-11-03T11:44:43.598Z,81.69
2022-11-03T11:47:30.518Z,81.29
2022-11-03T11:50:16.193Z,82.92
2022-11-03T11:52:46.097Z,82.75
2022-11-03T11:55:22.562Z,82.12
2022-11-03T11:57:49.585Z,82.40
2022-11-03T12:00:23.997Z,81.71
2022-11-03T12:02:52.652Z,81.87
2022-11-03T12:05:24.810Z,81.26
2022-11-03T12:07:51.768Z,81.77
2022-11-03T12:10:22.933Z,81.88
2022-11-03T12:12:50.391Z,82.54
2022-11-03T12:15:55.157Z,82.06
2022-11-03T12:18:39.946Z,82.42
2022-11-03T12:21:11.005Z,82.57
2022-11-03T12:23:37.678Z,82.48
2022-11-03T12:26:05.440Z,81.51
2022-11-03T12:28:36.109Z,81.80
2022-11-03T12:31:04.180Z,81.12
2022-11-03T12:33:30.859Z,81.64
2022-11-03T12:35:57.950Z,81.11
2022-11-03T12:38:32.927Z,80.97
2022-11-03T12:41:19.572Z,80.92
2022-11-03T12:43:49.782Z,81.09
2022-11-03T12:46:20.923Z,80.69
2022-11-03T12:48:48.203Z,80.14
2022-11-03T12:51:17.277Z,80.70
2022-11-03T12:53:44.698Z,80.20
2022-11-03T12:56:12.616Z,79.96
2022-11-03T12:58:39.383Z,79.30
2022-11-03T13:01:06.947Z,78.96
2022-11-03T13:03:34.673Z,79.39
2022-11-03T13:06:04.473Z,79.53
2022-11-03T13:08:31.775Z,79.23
2022-11-03T13:10:58.730Z,78.42
2022-11-03T13:13:26.020Z,77.81
2022-11-03T13:15:53.303Z,78.43
2022-11-03T13:18:21.191Z,77.46
2022-11-03T13:20:47.894Z,78.76
2022-11-03T13:23:17.453Z,78.36
2022-11-03T13:25:47.321Z,79.69
2022-11-03T13:28:14.029Z,80.01
2022-11-03T13:30:41.479Z,79.59
2022-11-03T13:33:08.717Z,78.89
2022-11-03T13:35:35.875Z,79.67
2022-11-03T13:38:02.640Z,79.71
2022-11-03T13:40:55.069Z,78.25
2022-11-03T13:43:16.122Z,77.59
2022-11-03T13:45:42.747Z,79.60
2022-11-03T13:49:07.447Z,78.95
2022-11-03T13:50:57.141Z,78.60
2022-11-03T13:56:16.798Z,77.48
2022-11-03T14:01:35.825Z,77.36
2022-11-03T14:06:49.787Z,74.55
2022-11-03T14:09:16.428Z,73.53
2022-11-03T14:12:01.728Z,73.65
2022-11-03T14:14:28.477Z,74.37
2022-11-03T14:16:55.333Z,74.56
2022-11-03T14:19:28.786Z,73.80
2022-11-03T14:22:00.607Z,74.08
2022-11-03T14:24:27.882Z,74.60
2022-11-03T14:26:54.656Z,76.44
2022-11-03T14:29:21.389Z,74.66
2022-11-03T14:31:48.151Z,73.91
2022-11-03T14:34:14.931Z,72.54
2022-11-03T14:36:42.171Z,75.10
2022-11-03T14:39:08.971Z,75.22
2022-11-03T14:41:53.995Z,76.03
2022-11-03T14:44:20.712Z,75.61
2022-11-03T14:46:47.404Z,75.72
2022-11-03T14:49:14.143Z,76.84
2022-11-03T14:51:40.855Z,78.05
2022-11-03T14:54:07.554Z,78.76
2022-11-03T14:56:34.265Z,79.81
2022-11-03T14:59:01.007Z,80.34
2022-11-03T15:01:27.948Z,79.73
2022-11-03T15:03:54.878Z,80.13
2022-11-03T15:06:21.729Z,81.39
2022-11-03T15:08:53.474Z,82.65
2022-11-03T15:11:22.961Z,84.71
2022-11-03T15:13:52.326Z,83.58
2022-11-03T15:16:19.441Z,82.81
2022-11-03T15:18:46.194Z,84.51
2022-11-03T15:21:13.204Z,84.05
2022-11-03T15:26:26.625Z,85.03
2022-11-03T15:28:53.745Z,86.12
2022-11-03T15:31:20.486Z,87.20
2022-11-03T15:33:47.338Z,86.22
2022-11-03T15:36:14.128Z,86.72
2022-11-03T15:38:40.841Z,86.15
2022-11-03T15:41:16.343Z,85.65
2022-11-03T15:43:44.723Z,86.06
2022-11-03T15:46:11.925Z,85.94
2022-11-03T15:48:38.953Z,87.78
2022-11-03T15:51:06.035Z,86.45
2022-11-03T15:53:32.797Z,87.35
2022-11-03T15:56:00.137Z,88.20
2022-11-03T15:58:26.930Z,87.71
2022-11-03T16:00:53.885Z,87.22
2022-11-03T16:03:20.632Z,88.78
2022-11-03T16:05:47.449Z,88.08
2022-11-03T16:08:14.054Z,88.90
2022-11-03T16:10:44.657Z,87.87
2022-11-03T16:13:16.425Z,88.23
2022-11-03T16:15:43.123Z,87.78
2022-11-03T16:18:10.050Z,88.93
2022-11-03T16:20:36.898Z,88.79
2022-11-03T16:23:03.555Z,87.45
2022-11-03T16:25:30.770Z,86.93
2022-11-03T16:27:57.887Z,86.70
2022-11-03T16:30:24.668Z,87.21
2022-11-03T16:32:53.192Z,86.95
2022-11-03T16:35:20.881Z,87.47
2022-11-03T16:37:47.947Z,87.50
2022-11-03T16:40:18.932Z,86.62
2022-11-03T16:42:46.384Z,85.76
2022-11-03T16:45:22.209Z,86.06
2022-11-03T16:47:50.536Z,85.28
2022-11-03T16:50:18.563Z,84.77
2022-11-03T16:52:49.717Z,86.17
2022-11-03T16:55:18.645Z,86.46
2022-11-03T16:57:45.802Z,86.91
2022-11-03T17:00:17.649Z,86.50
2022-11-03T17:02:45.538Z,88.05
2022-11-03T17:05:13.762Z,87.84
2022-11-03T17:07:40.476Z,86.93
2022-11-03T17:10:08.382Z,86.44
2022-11-03T17:12:35.080Z,87.93
2022-11-03T17:15:01.795Z,88.38
2022-11-03T17:17:28.456Z,88.06
2022-11-03T17:19:55.125Z,88.36
2022-11-03T17:22:22.353Z,89.76
2022-11-03T17:24:49.527Z,89.49
2022-11-03T17:27:24.300Z,89.77
2022-11-03T17:29:55.675Z,90.16
2022-11-03T17:32:26.491Z,89.46
2022-11-03T17:34:53.491Z,90.02
2022-11-03T17:37:21.054Z,90.17
2022-11-03T17:39:47.835Z,90.59
2022-11-03T17:42:25.750Z,90.86
2022-11-03T17:44:57.728Z,90.49
2022-11-03T17:47:24.833Z,90.75
2022-11-03T17:49:51.659Z,91.24
2022-11-03T17:52:27.853Z,89.81
2022-11-03T17:54:58.380Z,90.96
2022-11-03T17:57:26.532Z,91.63
2022-11-03T17:59:57.361Z,90.73
2022-11-03T18:02:30.853Z,90.14
2022-11-03T18:05:22.053Z,89.77
2022-11-03T18:07:50.895Z,89.93
2022-11-03T18:10:17.576Z,89.42
2022-11-03T18:13:07.227Z,88.50
2022-11-03T18:15:36.949Z,89.83
2022-11-03T18:18:13.160Z,89.27
2022-11-03T18:20:50.267Z,89.69
2022-11-03T18:23:24.915Z,89.02
2022-11-03T18:25:52.361Z,89.93
2022-11-03T18:28:20.028Z,89.37
2022-11-03T18:30:49.817Z,90.24
2022-11-03T18:33:22.863Z,90.03
2022-11-03T18:35:50.021Z,90.20
2022-11-03T18:38:17.341Z,90.37
2022-11-03T18:40:44.862Z,90.35
2022-11-03T18:43:17.108Z,90.12
2022-11-03T18:45:44.113Z,90.29
2022-11-03T18:48:19.165Z,90.69
2022-11-03T18:50:51.062Z,90.58
2022-11-03T18:53:20.186Z,90.79
2022-11-03T18:55:46.936Z,90.54
2022-11-03T18:58:20.504Z,90.83
2022-11-03T19:00:47.304Z,92.13
2022-11-03T19:03:18.992Z,91.49
2022-11-03T19:05:48.222Z,91.71
2022-11-03T19:08:36.281Z,91.40
2022-11-03T19:11:03.966Z,91.10
2022-11-03T19:13:40.423Z,91.00
2022-11-03T19:16:27.665Z,91.42
2022-11-03T19:18:54.382Z,91.47
2022-11-03T19:21:23.994Z,92.45
2022-11-03T19:23:55.522Z,92.21
2022-11-03T19:26:30.666Z,91.88
2022-11-03T19:29:02.611Z,91.67
2022-11-03T19:31:37.761Z,91.70
2022-11-03T19:34:07.154Z,91.25
2022-11-03T19:36:33.888Z,92.11
2022-11-03T19:39:01.123Z,92.00
2022-11-03T19:41:46.124Z,92.25
2022-11-03T19:44:13.906Z,92.12
2022-11-03T19:46:42.023Z,92.01
2022-11-03T19:49:14.287Z,92.07
2022-11-03T19:51:41.096Z,92.34
2022-11-03T19:54:15.721Z,91.57
2022-11-03T19:56:42.392Z,91.77
2022-11-03T19:59:11.490Z,91.25
2022-11-03T20:01:38.248Z,91.42
2022-11-03T20:04:05.618Z,91.26
2022-11-03T20:06:36.956Z,91.36
2022-11-03T20:09:07.625Z,91.57
2022-11-03T20:11:35.513Z,92.28
2022-11-03T20:14:03.644Z,91.95
2022-11-03T20:16:31.288Z,91.57
2022-11-03T20:18:58.215Z,92.17
2022-11-03T20:21:30.087Z,92.24
2022-11-03T20:24:01.030Z,91.97
2022-11-03T20:26:28.328Z,92.67
2022-11-03T20:28:56.316Z,92.75
2022-11-03T20:31:23.073Z,92.12
2022-11-03T20:33:49.805Z,91.81
2022-11-03T20:36:19.178Z,92.62
2022-11-03T20:38:50.859Z,92.65
2022-11-03T20:41:17.692Z,92.49
2022-11-03T20:43:47.192Z,92.33
2022-11-03T20:46:20.592Z,92.60
2022-11-03T20:48:47.535Z,92.20
2022-11-03T20:51:15.681Z,92.23
2022-11-03T20:53:42.620Z,92.51
2022-11-03T20:56:19.396Z,92.30
2022-11-03T20:58:47.397Z,92.24
2022-11-03T21:01:38.725Z,92.06
2022-11-03T21:04:09.629Z,91.94
2022-11-03T21:06:37.463Z,91.79
2022-11-03T21:09:04.875Z,92.06
2022-11-03T21:11:36.863Z,91.78
2022-11-03T21:14:25.937Z,91.80
2022-11-03T21:17:11.204Z,91.77
2022-11-03T21:20:00.905Z,91.97
2022-11-03T21:22:52.426Z,92.32
2022-11-03T21:25:21.984Z,92.36
2022-11-03T21:27:49.744Z,92.32
2022-11-03T21:30:17.905Z,91.93
2022-11-03T21:32:44.678Z,92.66
2022-11-03T21:35:16.572Z,92.32
2022-11-03T21:37:43.313Z,92.15
2022-11-03T21:40:10.440Z,91.77
2022-11-03T21:42:55.784Z,92.72
2022-11-03T21:45:22.512Z,92.43
2022-11-03T21:48:13.171Z,92.31
2022-11-03T21:50:41.573Z,92.00
2022-11-03T21:53:08.677Z,92.03
2022-11-03T21:55:35.755Z,92.10
2022-11-03T21:58:03.503Z,92.57
2022-11-03T22:00:30.989Z,92.28
2022-11-03T22:02:58.974Z,92.20
2022-11-03T22:05:26.495Z,92.40
2022-11-03T22:07:53.540Z,92.29
2022-11-03T22:10:20.676Z,91.73
2022-11-03T22:12:48.777Z,91.96
2022-11-03T22:15:34.285Z,91.95
2022-11-03T22:18:02.209Z,92.69
2022-11-03T22:20:47.688Z,92.47
2022-11-03T22:23:34.209Z,92.24
2022-11-03T22:26:19.996Z,92.44
2022-11-03T22:29:05.289Z,92.32
2022-11-03T22:31:41.347Z,92.07
2022-11-03T22:34:26.663Z,92.61
2022-11-03T22:36:53.468Z,92.32
2022-11-03T22:39:38.682Z,92.79
2022-11-03T22:42:23.866Z,92.58
2022-11-03T22:45:09.250Z,92.65
2022-11-03T22:47:38.389Z,92.76
2022-11-03T22:50:05.265Z,92.29
2022-11-03T22:52:31.987Z,92.83
2022-11-03T22:54:58.792Z,92.88
2022-11-03T22:57:25.468Z,92.74
2022-11-03T22:59:54.332Z,92.60
2022-11-03T23:02:21.128Z,92.66
2022-11-03T23:04:47.885Z,92.66
2022-11-03T23:07:14.605Z,92.86
2022-11-03T23:09:41.441Z,92.61
2022-11-03T23:12:08.194Z,92.41
2022-11-03T23:14:53.258Z,92.04
2022-11-03T23:17:20.014Z,92.75
2022-11-03T23:20:05.343Z,92.80
2022-11-03T23:22:32.080Z,93.04
2022-11-03T23:25:01.730Z,92.67
2022-11-03T23:27:28.778Z,92.59
2022-11-03T23:29:55.546Z,92.39
2022-11-03T23:32:22.308Z,92.69
2022-11-03T23:34:49.087Z,92.85
2022-11-03T23:37:15.860Z,92.67
2022-11-03T23:39:42.594Z,92.90
2022-11-03T23:42:09.237Z,92.86
2022-11-03T23:45:01.979Z,92.71
2022-11-03T23:47:46.869Z,92.91
2022-11-03T23:50:13.701Z,92.97
2022-11-03T23:52:40.333Z,92.88
2022-11-03T23:55:07.421Z,92.73
2022-11-03T23:57:52.470Z,92.51
